createdAt,value
2018-02-09T00:00:36.543Z,136.93
2018-02-09T00:03:02.740Z,178.30
2018-02-09T00:05:29.711Z,131.33
2018-02-09T00:07:55.908Z,136.23
2018-02-09T00:10:22.130Z,157.77
2018-02-09T00:12:48.343Z,149.00
2018-02-09T00:15:14.531Z,158.40
2018-02-09T00:17:40.777Z,138.63
2018-02-09T00:20:06.964Z,145.77
2018-02-09T00:22:54.735Z,158.53
2018-02-09T00:25:20.926Z,156.00
2018-02-09T00:27:47.917Z,181.37
2018-02-09T00:30:14.099Z,160.60
2018-02-09T00:32:41.395Z,171.07
2018-02-09T00:35:07.628Z,175.77
2018-02-09T00:37:33.839Z,182.77
2018-02-09T00:40:00.029Z,221.20
2018-02-09T00:42:26.253Z,194.73
2018-02-09T00:44:52.508Z,212.17
2018-02-09T00:47:19.459Z,202.47
2018-02-09T00:49:46.390Z,211.23
2018-02-09T00:52:20.272Z,272.13
2018-02-09T00:54:46.936Z,274.77
2018-02-09T00:57:13.895Z,252.90
2018-02-09T00:59:40.819Z,259.83
2018-02-09T01:02:07.125Z,263.10
2018-02-09T01:04:33.316Z,268.73
2018-02-09T01:06:59.507Z,265.00
2018-02-09T01:09:25.959Z,240.43
2018-02-09T01:11:52.972Z,239.53
2018-02-09T01:14:19.184Z,268.00
2018-02-09T01:16:45.399Z,271.17
2018-02-09T01:19:11.623Z,282.30
2018-02-09T01:21:37.808Z,279.17
2018-02-09T01:24:04.288Z,261.17
2018-02-09T01:26:30.495Z,272.90
2018-02-09T01:28:56.711Z,326.53
2018-02-09T01:31:23.648Z,273.97
2018-02-09T01:33:50.607Z,320.10
2018-02-09T01:36:17.606Z,276.83
2018-02-09T01:38:43.828Z,272.17
2018-02-09T01:41:10.008Z,254.37
2018-02-09T01:43:36.964Z,261.67
2018-02-09T01:46:04.140Z,257.37
2018-02-09T01:48:30.353Z,263.80
2018-02-09T01:50:56.573Z,325.97
2018-02-09T01:53:22.768Z,279.17
2018-02-09T01:55:48.988Z,299.87
2018-02-09T01:58:15.180Z,290.77
2018-02-09T02:00:41.400Z,271.87
2018-02-09T02:03:07.603Z,267.77
2018-02-09T02:05:34.569Z,329.80
2018-02-09T02:08:00.780Z,295.70
2018-02-09T02:10:27.740Z,263.00
2018-02-09T02:12:53.932Z,333.53
2018-02-09T02:15:20.143Z,291.33
2018-02-09T02:17:46.678Z,243.37
2018-02-09T02:20:13.144Z,306.90
2018-02-09T02:22:40.570Z,241.10
2018-02-09T02:25:08.130Z,305.57
2018-02-09T02:27:34.435Z,267.23
2018-02-09T02:30:00.667Z,252.70
2018-02-09T02:32:26.864Z,271.43
2018-02-09T02:34:53.825Z,250.20
2018-02-09T02:37:20.017Z,252.00
2018-02-09T02:39:46.199Z,231.43
2018-02-09T02:42:12.423Z,243.07
2018-02-09T02:44:38.613Z,235.10
2018-02-09T02:47:05.591Z,240.70
2018-02-09T02:49:31.832Z,256.33
2018-02-09T02:51:58.024Z,245.30
2018-02-09T02:54:24.964Z,247.63
2018-02-09T02:56:51.931Z,245.13
2018-02-09T02:59:18.124Z,265.47
2018-02-09T03:01:44.332Z,277.53
2018-02-09T03:04:10.532Z,246.40
2018-02-09T03:06:36.923Z,252.73
2018-02-09T03:09:03.152Z,242.23
2018-02-09T03:11:30.092Z,209.37
2018-02-09T03:13:56.300Z,247.80
2018-02-09T03:16:23.971Z,255.53
2018-02-09T03:18:50.177Z,256.63
2018-02-09T03:21:16.355Z,245.67
2018-02-09T03:23:43.314Z,217.43
2018-02-09T03:26:10.235Z,228.70
2018-02-09T03:28:36.497Z,243.00
2018-02-09T03:31:02.688Z,213.97
2018-02-09T03:33:28.900Z,222.87
2018-02-09T03:35:55.092Z,240.53
2018-02-09T03:38:21.316Z,233.10
2018-02-09T03:40:47.504Z,224.73
2018-02-09T03:43:13.720Z,237.23
2018-02-09T03:45:40.671Z,223.93
2018-02-09T03:48:06.856Z,221.30
2018-02-09T03:50:33.066Z,226.00
2018-02-09T03:52:59.247Z,247.43
2018-02-09T03:55:25.460Z,252.67
2018-02-09T03:57:51.646Z,217.53
2018-02-09T04:00:18.608Z,230.77
2018-02-09T04:02:44.795Z,220.63
2018-02-09T04:05:11.016Z,225.63
2018-02-09T04:07:37.214Z,239.17
2018-02-09T04:10:03.426Z,243.37
2018-02-09T04:12:29.613Z,208.57
2018-02-09T04:14:55.848Z,246.37
2018-02-09T04:17:22.775Z,271.33
2018-02-09T04:19:48.969Z,247.83
2018-02-09T04:22:15.171Z,232.43
2018-02-09T04:24:41.368Z,228.63
2018-02-09T04:27:07.584Z,241.43
2018-02-09T04:29:33.780Z,273.20
2018-02-09T04:32:00.053Z,275.83
2018-02-09T04:34:26.240Z,226.33
2018-02-09T04:36:52.440Z,246.83
2018-02-09T04:39:19.371Z,250.33
2018-02-09T04:41:46.349Z,228.13
2018-02-09T04:44:12.540Z,238.37
2018-02-09T04:46:39.484Z,218.40
2018-02-09T04:49:06.431Z,232.27
2018-02-09T04:51:32.611Z,163.80
2018-02-09T04:53:58.832Z,224.30
2018-02-09T04:56:25.023Z,248.27
2018-02-09T04:58:51.977Z,234.13
2018-02-09T05:01:18.904Z,257.30
2018-02-09T05:03:45.111Z,232.80
2018-02-09T05:06:11.300Z,255.03
2018-02-09T05:08:37.512Z,240.30
2018-02-09T05:11:04.440Z,236.83
2018-02-09T05:13:30.661Z,259.70
2018-02-09T05:15:56.849Z,241.13
2018-02-09T05:18:23.064Z,248.53
2018-02-09T05:20:49.248Z,262.40
2018-02-09T05:23:15.463Z,216.83
2018-02-09T05:25:41.643Z,228.93
2018-02-09T05:28:07.843Z,238.43
2018-02-09T05:30:34.795Z,218.33
2018-02-09T05:33:01.728Z,241.10
2018-02-09T05:35:28.692Z,259.57
2018-02-09T05:37:55.627Z,217.20
2018-02-09T05:40:22.577Z,240.33
2018-02-09T05:42:49.527Z,215.47
2018-02-09T05:45:16.484Z,226.27
2018-02-09T05:47:42.675Z,199.03
2018-02-09T05:50:09.172Z,245.10
2018-02-09T05:52:35.351Z,211.23
2018-02-09T05:55:01.531Z,232.37
2018-02-09T05:57:27.767Z,241.33
2018-02-09T05:59:53.955Z,229.27
2018-02-09T06:02:20.903Z,228.70
2018-02-09T06:04:47.831Z,231.97
2018-02-09T06:07:14.779Z,253.33
2018-02-09T06:09:41.771Z,226.93
2018-02-09T06:12:07.991Z,256.97
2018-02-09T06:14:34.179Z,256.63
2018-02-09T06:17:01.140Z,263.47
2018-02-09T06:19:28.073Z,254.13
2018-02-09T06:21:55.063Z,179.20
2018-02-09T06:24:21.271Z,218.53
2018-02-09T06:26:47.468Z,185.47
2018-02-09T06:29:13.675Z,215.10
2018-02-09T06:31:39.864Z,211.63
2018-02-09T06:34:06.073Z,203.63
2018-02-09T06:36:33.003Z,174.97
2018-02-09T06:38:59.216Z,211.47
2018-02-09T06:41:26.159Z,204.93
2018-02-09T06:43:52.403Z,165.57
2018-02-09T06:46:19.350Z,169.00
2018-02-09T06:48:45.544Z,194.87
2018-02-09T06:51:11.759Z,192.23
2018-02-09T06:53:38.012Z,144.60
2018-02-09T06:56:04.227Z,221.10
2018-02-09T06:58:30.411Z,216.90
2018-02-09T07:00:57.383Z,232.77
2018-02-09T07:03:23.563Z,93.03
2018-02-09T07:05:49.780Z,195.83
2018-02-09T07:08:15.963Z,172.80
2018-02-09T07:10:42.160Z,187.00
2018-02-09T07:13:09.139Z,202.67
2018-02-09T07:15:35.336Z,172.50
2018-02-09T07:18:02.289Z,157.73
2018-02-09T07:20:29.223Z,227.93
2018-02-09T07:22:55.456Z,212.67
2018-02-09T07:25:22.414Z,178.93
2018-02-09T07:27:49.380Z,197.60
2018-02-09T07:30:15.581Z,180.47
2018-02-09T07:32:42.581Z,104.70
2018-02-09T07:35:08.785Z,144.80
2018-02-09T07:37:35.045Z,131.23
2018-02-09T07:40:01.261Z,166.80
2018-02-09T07:42:27.476Z,133.97
2018-02-09T07:44:53.763Z,196.77
2018-02-09T07:47:20.695Z,174.10
2018-02-09T07:49:47.639Z,247.60
2018-02-09T07:52:13.883Z,144.27
2018-02-09T07:54:40.097Z,180.33
2018-02-09T07:57:06.278Z,93.37
2018-02-09T07:59:32.496Z,119.47
2018-02-09T08:01:59.447Z,149.87
2018-02-09T08:04:25.696Z,157.40
2018-02-09T08:06:51.888Z,107.00
2018-02-09T08:09:18.835Z,96.10
2018-02-09T08:11:45.781Z,135.07
2018-02-09T08:14:12.739Z,134.37
2018-02-09T08:16:38.975Z,143.43
2018-02-09T08:19:05.892Z,85.50
2018-02-09T08:21:32.859Z,224.67
2018-02-09T08:23:59.047Z,103.67
2018-02-09T08:26:25.256Z,163.10
2018-02-09T08:28:51.457Z,110.23
2018-02-09T08:31:17.663Z,155.20
2018-02-09T08:33:44.592Z,122.00
2018-02-09T08:36:10.910Z,129.17
2018-02-09T08:38:37.840Z,219.37
2018-02-09T08:41:04.143Z,79.50
2018-02-09T08:43:30.335Z,215.20
2018-02-09T08:45:57.367Z,127.37
2018-02-09T08:48:24.291Z,126.27
2018-02-09T08:50:50.480Z,168.03
2018-02-09T08:53:16.688Z,109.60
2018-02-09T08:55:43.624Z,126.43
2018-02-09T08:58:09.827Z,151.67
2018-02-09T09:00:36.015Z,116.27
2018-02-09T09:03:02.271Z,94.67
2018-02-09T09:05:28.457Z,184.27
2018-02-09T09:07:55.400Z,102.63
2018-02-09T09:10:22.333Z,172.23
2018-02-09T09:12:49.282Z,125.57
2018-02-09T09:15:15.472Z,146.80
2018-02-09T09:17:41.664Z,106.70
2018-02-09T09:20:07.871Z,110.10
2018-02-09T09:22:34.801Z,118.47
2018-02-09T09:25:01.747Z,199.63
2018-02-09T09:27:27.946Z,90.57
2018-02-09T09:29:54.228Z,144.83
2018-02-09T09:32:20.447Z,92.10
2018-02-09T09:34:46.659Z,178.77
2018-02-09T09:37:12.852Z,135.87
2018-02-09T09:39:39.051Z,165.80
2018-02-09T09:42:05.292Z,67.03
2018-02-09T09:44:31.479Z,111.17
2018-02-09T09:46:57.687Z,171.40
2018-02-09T09:49:23.876Z,167.10
2018-02-09T09:51:50.083Z,339.60
2018-02-09T09:54:17.076Z,118.70
2018-02-09T09:56:43.279Z,195.07
2018-02-09T09:59:09.460Z,153.80
2018-02-09T10:01:35.679Z,166.67
2018-02-09T10:04:01.872Z,133.13
2018-02-09T10:06:28.079Z,115.47
2018-02-09T10:08:55.085Z,91.70
2018-02-09T10:11:21.292Z,207.73
2018-02-09T10:13:47.482Z,174.27
2018-02-09T10:16:14.444Z,93.50
2018-02-09T10:18:40.642Z,128.60
2018-02-09T10:21:06.912Z,105.77
2018-02-09T10:23:33.135Z,157.47
2018-02-09T10:25:59.324Z,137.77
2018-02-09T10:28:25.539Z,130.13
2018-02-09T10:30:51.736Z,142.33
2018-02-09T10:33:17.952Z,103.80
2018-02-09T10:35:44.152Z,151.60
2018-02-09T10:38:11.104Z,148.20
2018-02-09T10:40:37.296Z,114.83
2018-02-09T10:43:03.524Z,126.10
2018-02-09T10:45:29.792Z,151.10
2018-02-09T10:47:56.739Z,156.93
2018-02-09T10:50:23.664Z,178.70
2018-02-09T10:52:49.871Z,136.90
2018-02-09T10:55:16.051Z,135.83
2018-02-09T10:57:42.239Z,81.70
2018-02-09T11:00:08.456Z,152.60
2018-02-09T11:02:34.648Z,148.07
2018-02-09T11:05:00.868Z,131.20
2018-02-09T11:07:27.047Z,197.13
2018-02-09T11:09:53.275Z,105.97
2018-02-09T11:12:20.363Z,163.17
2018-02-09T11:14:47.316Z,147.93
2018-02-09T11:17:13.536Z,135.00
2018-02-09T11:19:40.488Z,164.97
2018-02-09T11:22:06.761Z,208.03
2018-02-09T11:24:32.976Z,100.10
2018-02-09T11:26:59.163Z,142.20
2018-02-09T11:29:26.099Z,149.07
2018-02-09T11:31:52.316Z,147.17
2018-02-09T11:34:18.511Z,109.33
2018-02-09T11:36:44.723Z,118.70
2018-02-09T11:39:10.912Z,124.93
2018-02-09T11:41:37.884Z,95.07
2018-02-09T11:44:04.072Z,141.40
2018-02-09T11:46:30.281Z,159.20
2018-02-09T11:48:56.471Z,152.37
2018-02-09T11:51:22.683Z,127.50
2018-02-09T11:53:49.612Z,166.07
2018-02-09T11:56:15.927Z,149.33
2018-02-09T11:58:42.113Z,160.33
2018-02-09T12:01:08.308Z,152.40
2018-02-09T12:03:35.252Z,99.97
2018-02-09T12:06:02.204Z,166.50
2018-02-09T12:08:29.164Z,139.83
2018-02-09T12:10:56.087Z,121.67
2018-02-09T12:13:23.057Z,121.13
2018-02-09T12:15:49.982Z,128.17
2018-02-09T12:18:16.928Z,145.07
2018-02-09T12:20:43.865Z,168.57
2018-02-09T12:23:10.076Z,155.90
2018-02-09T12:25:36.279Z,147.73
2018-02-09T12:28:02.483Z,200.80
2018-02-09T12:30:28.672Z,132.20
2018-02-09T12:32:54.888Z,169.67
2018-02-09T12:35:21.077Z,130.87
2018-02-09T12:37:47.272Z,165.03
2018-02-09T12:40:14.224Z,172.17
2018-02-09T12:42:40.464Z,137.33
2018-02-09T12:45:07.413Z,188.30
2018-02-09T12:47:34.344Z,140.47
2018-02-09T12:50:01.312Z,156.90
2018-02-09T12:52:27.491Z,166.83
2018-02-09T12:54:53.703Z,133.30
2018-02-09T12:57:19.896Z,155.53
2018-02-09T12:59:46.075Z,175.40
2018-02-09T13:02:12.288Z,163.00
2018-02-09T13:04:38.467Z,163.50
2018-02-09T13:07:05.412Z,179.97
2018-02-09T13:09:32.339Z,142.53
2018-02-09T13:11:58.551Z,147.60
2018-02-09T13:14:37.199Z,157.53
2018-02-09T13:17:04.151Z,167.00
2018-02-09T13:19:31.084Z,117.37
2018-02-09T13:21:57.298Z,129.67
2018-02-09T13:24:23.532Z,153.30
2018-02-09T13:26:49.711Z,152.97
2018-02-09T13:29:15.933Z,170.20
2018-02-09T13:31:42.148Z,175.00
2018-02-09T13:34:09.100Z,124.27
2018-02-09T13:39:35.161Z,159.97
2018-02-09T13:42:01.381Z,143.50
2018-02-09T13:44:29.331Z,192.27
2018-02-09T13:46:56.260Z,161.47
2018-02-09T13:49:22.568Z,191.83
2018-02-09T13:51:48.754Z,172.33
2018-02-09T13:54:14.992Z,164.50
2018-02-09T13:56:41.184Z,137.83
2018-02-09T13:59:08.135Z,181.67
2018-02-09T14:01:35.131Z,162.83
2018-02-09T14:04:01.353Z,171.10
2018-02-09T14:06:27.548Z,128.10
2018-02-09T14:08:54.490Z,155.50
2018-02-09T14:11:21.416Z,171.17
2018-02-09T14:13:47.628Z,164.40
2018-02-09T14:16:13.824Z,179.23
2018-02-09T14:18:40.021Z,184.60
2018-02-09T14:21:06.967Z,218.57
2018-02-09T14:23:33.891Z,156.53
2018-02-09T14:26:00.103Z,178.67
2018-02-09T14:28:26.288Z,196.47
2018-02-09T14:30:52.506Z,158.70
2018-02-09T14:33:19.436Z,191.10
2018-02-09T14:35:46.383Z,197.60
2018-02-09T14:38:13.307Z,171.30
2018-02-09T14:40:39.535Z,147.43
2018-02-09T14:43:05.757Z,175.23
2018-02-09T14:45:31.944Z,155.17
2018-02-09T14:47:58.153Z,200.33
2018-02-09T14:50:25.079Z,187.67
2018-02-09T14:52:51.288Z,170.53
2018-02-09T14:55:17.479Z,189.70
2018-02-09T14:57:43.695Z,200.30
2018-02-09T15:00:09.887Z,173.60
2018-02-09T15:02:37.609Z,170.67
2018-02-09T15:05:03.795Z,184.90
2018-02-09T15:07:30.751Z,179.53
2018-02-09T15:09:57.688Z,174.87
2018-02-09T15:12:24.647Z,176.67
2018-02-09T15:14:50.857Z,164.27
2018-02-09T15:17:17.067Z,149.03
2018-02-09T15:19:43.271Z,153.57
2018-02-09T15:22:09.479Z,172.03
2018-02-09T15:24:35.690Z,163.50
2018-02-09T15:27:02.620Z,172.57
2018-02-09T15:29:29.576Z,176.30
2018-02-09T15:31:56.504Z,167.27
2018-02-09T15:34:22.744Z,146.47
2018-02-09T15:36:49.672Z,177.70
2018-02-09T15:39:15.892Z,144.40
2018-02-09T15:41:42.104Z,151.17
2018-02-09T15:44:08.336Z,165.60
2018-02-09T15:46:34.524Z,168.30
2018-02-09T15:49:00.719Z,182.10
2018-02-09T15:51:26.912Z,165.60
2018-02-09T15:53:53.119Z,142.30
2018-02-09T15:56:19.312Z,141.17
2018-02-09T15:58:45.519Z,140.47
2018-02-09T16:01:11.711Z,141.13
2018-02-09T16:03:37.976Z,145.60
2018-02-09T16:06:04.188Z,127.37
2018-02-09T16:08:30.376Z,152.33
2018-02-09T16:10:57.325Z,127.40
2018-02-09T16:13:23.518Z,140.93
2018-02-09T16:15:49.732Z,142.43
2018-02-09T16:18:15.944Z,142.73
2018-02-09T16:20:42.152Z,126.47
2018-02-09T16:23:08.345Z,126.93
2018-02-09T16:25:35.308Z,126.30
2018-02-09T16:28:02.235Z,136.17
2018-02-09T16:30:28.488Z,125.87
2018-02-09T16:32:54.696Z,123.13
2018-02-09T16:35:21.633Z,123.47
2018-02-09T16:37:47.845Z,137.17
2018-02-09T16:40:14.032Z,127.40
2018-02-09T16:42:40.319Z,140.07
2018-02-09T16:45:06.512Z,144.20
2018-02-09T16:47:32.724Z,128.50
2018-02-09T16:49:58.928Z,124.53
2018-02-09T16:52:25.880Z,136.43
2018-02-09T16:54:52.091Z,132.13
2018-02-09T16:57:19.019Z,129.87
2018-02-09T16:59:45.224Z,148.07
2018-02-09T17:02:11.408Z,114.37
2018-02-09T17:04:38.368Z,131.13
2018-02-09T17:07:04.551Z,122.03
2018-02-09T17:09:30.761Z,112.90
2018-02-09T17:11:56.944Z,136.80
2018-02-09T17:14:23.179Z,131.70
2018-02-09T17:16:49.394Z,134.17
2018-02-09T17:19:16.326Z,142.10
2018-02-09T17:21:42.909Z,137.80
2018-02-09T17:24:09.111Z,124.40
2018-02-09T17:26:36.056Z,129.23
2018-02-09T17:29:02.988Z,111.47
2018-02-09T17:31:29.939Z,118.93
2018-02-09T17:33:56.867Z,128.03
2018-02-09T17:36:23.075Z,124.50
2018-02-09T17:38:49.255Z,110.50
2018-02-09T17:41:15.822Z,122.60
2018-02-09T17:43:42.026Z,132.20
2018-02-09T17:46:08.247Z,141.13
2018-02-09T17:48:34.496Z,130.97
2018-02-09T17:51:00.699Z,110.13
2018-02-09T17:53:27.636Z,122.83
2018-02-09T17:55:54.583Z,143.40
2018-02-09T17:58:21.531Z,145.73
2018-02-09T18:00:48.486Z,128.80
2018-02-09T18:03:15.425Z,154.50
2018-02-09T18:05:41.667Z,129.87
2018-02-09T18:08:07.847Z,118.57
2018-02-09T18:10:34.036Z,138.93
2018-02-09T18:13:00.247Z,123.67
2018-02-09T18:15:26.466Z,110.63
2018-02-09T18:17:53.424Z,131.40
2018-02-09T18:20:19.607Z,165.23
2018-02-09T18:22:45.811Z,144.40
2018-02-09T18:25:12.000Z,139.57
2018-02-09T18:27:38.951Z,162.53
2018-02-09T18:30:05.887Z,154.43
2018-02-09T18:32:32.847Z,141.30
2018-02-09T18:34:59.788Z,156.77
2018-02-09T18:37:26.719Z,131.57
2018-02-09T18:39:53.663Z,128.47
2018-02-09T18:42:20.616Z,133.67
2018-02-09T18:44:47.639Z,130.37
2018-02-09T18:47:13.832Z,126.93
2018-02-09T18:49:40.048Z,129.87
2018-02-09T18:52:06.251Z,131.17
2018-02-09T18:54:33.212Z,143.40
2018-02-09T18:56:59.404Z,162.07
2018-02-09T18:59:25.616Z,149.40
2018-02-09T19:01:51.836Z,146.07
2018-02-09T19:04:18.035Z,149.37
2018-02-09T19:06:44.219Z,127.83
2018-02-09T19:09:10.429Z,146.60
2018-02-09T19:11:36.625Z,140.23
2018-02-09T19:14:02.874Z,149.13
2018-02-09T19:16:29.055Z,147.80
2018-02-09T19:18:55.995Z,127.07
2018-02-09T19:21:22.924Z,123.70
2018-02-09T19:23:49.136Z,159.97
2018-02-09T19:26:15.352Z,140.43
2018-02-09T19:28:41.539Z,131.63
2018-02-09T19:31:08.553Z,134.93
2018-02-09T19:33:34.757Z,144.20
2018-02-09T19:36:01.052Z,144.50
2018-02-09T19:38:27.244Z,139.40
2018-02-09T19:40:53.457Z,143.00
2018-02-09T19:43:19.672Z,137.00
2018-02-09T19:45:45.875Z,143.90
2018-02-09T19:48:12.123Z,132.33
2018-02-09T19:50:38.331Z,110.30
2018-02-09T19:53:04.540Z,119.30
2018-02-09T19:55:31.466Z,133.27
2018-02-09T19:57:57.688Z,126.70
2018-02-09T20:00:23.888Z,118.80
2018-02-09T20:02:50.097Z,126.87
2018-02-09T20:05:16.287Z,108.40
2018-02-09T20:07:42.496Z,117.50
2018-02-09T20:10:08.708Z,122.23
2018-02-09T20:12:34.923Z,129.73
2018-02-09T20:15:01.159Z,125.47
2018-02-09T20:17:27.339Z,121.70
2018-02-09T20:19:54.295Z,115.47
2018-02-09T20:22:21.219Z,126.33
2018-02-09T20:24:47.432Z,99.00
2018-02-09T20:27:13.610Z,132.37
2018-02-09T20:29:39.819Z,130.10
2018-02-09T20:32:06.747Z,127.10
2018-02-09T20:34:32.959Z,112.23
2018-02-09T20:36:59.158Z,122.30
2018-02-09T20:39:25.552Z,129.47
2018-02-09T20:41:52.504Z,125.97
2018-02-09T20:44:19.463Z,128.17
2018-02-09T20:46:45.656Z,146.77
2018-02-09T20:49:11.904Z,144.30
2018-02-09T20:51:38.841Z,132.40
2018-02-09T20:54:05.830Z,119.50
2018-02-09T20:56:32.024Z,118.40
2018-02-09T20:58:58.996Z,144.83
2018-02-09T21:01:25.183Z,124.20
2018-02-09T21:03:51.367Z,126.60
2018-02-09T21:06:17.588Z,136.53
2018-02-09T21:08:43.788Z,139.27
2018-02-09T21:11:10.743Z,126.50
2018-02-09T21:13:36.936Z,137.60
2018-02-09T21:16:03.156Z,133.17
2018-02-09T21:18:29.341Z,122.33
2018-02-09T21:20:55.544Z,133.53
2018-02-09T21:23:22.467Z,123.10
2018-02-09T21:25:48.684Z,133.80
2018-02-09T21:28:14.867Z,125.13
2018-02-09T21:30:41.076Z,140.10
2018-02-09T21:33:08.000Z,131.60
2018-02-09T21:35:34.193Z,115.03
2018-02-09T21:38:00.399Z,122.27
2018-02-09T21:40:26.585Z,111.30
2018-02-09T21:42:52.817Z,101.13
2018-02-09T21:45:19.008Z,110.87
2018-02-09T21:47:45.220Z,108.23
2018-02-09T21:50:11.408Z,111.83
2018-02-09T21:52:37.623Z,130.23
2018-02-09T21:55:03.824Z,117.87
2018-02-09T21:57:30.033Z,104.97
2018-02-09T21:59:56.222Z,116.23
2018-02-09T22:02:23.171Z,101.87
2018-02-09T22:04:49.356Z,100.83
2018-02-09T22:07:15.565Z,100.13
2018-02-09T22:09:41.756Z,91.43
2018-02-09T22:12:08.712Z,133.90
2018-02-09T22:14:34.936Z,107.10
2018-02-09T22:17:01.895Z,105.60
2018-02-09T22:19:28.823Z,110.97
2018-02-09T22:21:55.755Z,106.87
2018-02-09T22:24:22.712Z,122.07
2018-02-09T22:26:50.619Z,108.50
2018-02-09T22:29:16.820Z,109.37
2018-02-09T22:31:43.758Z,97.17
2018-02-09T22:34:10.753Z,119.37
2018-02-09T22:36:36.935Z,127.53
2018-02-09T22:39:03.927Z,131.77
2018-02-09T22:41:30.135Z,109.93
2018-02-09T22:43:56.336Z,110.23
2018-02-09T22:46:23.332Z,114.37
2018-02-09T22:48:49.543Z,114.53
2018-02-09T22:51:15.731Z,109.50
2018-02-09T22:53:41.939Z,124.87
2018-02-09T22:56:08.156Z,120.87
2018-02-09T22:58:34.704Z,111.57
2018-02-09T23:01:00.947Z,132.20
2018-02-09T23:03:27.136Z,128.40
2018-02-09T23:05:53.347Z,121.03
2018-02-09T23:08:19.555Z,136.27
2018-02-09T23:10:46.514Z,116.20
2018-02-09T23:13:13.445Z,136.13
2018-02-09T23:15:40.479Z,116.23
2018-02-09T23:18:06.667Z,124.73
2018-02-09T23:20:32.875Z,118.07
2018-02-09T23:22:59.068Z,130.27
2018-02-09T23:25:26.024Z,118.73
2018-02-09T23:27:52.952Z,114.57
2018-02-09T23:30:19.200Z,117.50
2018-02-09T23:32:46.127Z,123.37
2018-02-09T23:35:12.320Z,121.77
2018-02-09T23:37:38.531Z,120.73
2018-02-09T23:40:04.727Z,116.67
2018-02-09T23:42:31.691Z,116.07
2018-02-09T23:44:57.875Z,127.17
2018-02-09T23:47:24.086Z,120.80
2018-02-09T23:49:50.268Z,144.23
2018-02-09T23:52:17.215Z,117.73
2018-02-09T23:54:44.143Z,109.63
2018-02-09T23:57:10.366Z,122.17
2018-02-09T23:59:36.560Z,74.07
